Time;durP1;ratioP1;P1;durP2;ratioP2;P2;SDS_P1;SDS_P2;PMS_P1;PMS_P2;Temp;Humidity;BMP_temperature;BMP_pressure;BME280_temperature;BME280_humidity;BME280_pressure;Samples;Min_cycle;Max_cycle;Signal;HPM_P1;HPM_P2
2021/01/28 06:15:27;;;;;;;29.30;17.23;;;;;;;;;;4993545;28;20499;-66
2021/01/28 06:18:02;;;;;;;33.72;19.63;;;;;;;;;;5014410;28;20029;-66
2021/01/28 06:20:51;;;;;;;40.50;20.08;;;;;;;;;;5013213;28;20121;-65
2021/01/28 06:23:29;;;;;;;32.40;18.65;;;;;;;;;;5013898;28;20026;-67
2021/01/28 06:26:07;;;;;;;33.05;19.63;;;;;;;;;;5014188;28;20491;-67
2021/01/28 06:28:52;;;;;;;32.15;19.08;;;;;;;;;;5013100;28;20026;-65
2021/01/28 06:31:37;;;;;;;34.58;19.73;;;;;;;;;;5013389;28;20026;-67
2021/01/28 06:34:15;;;;;;;32.33;18.80;;;;;;;;;;5013357;28;20057;-64
2021/01/28 06:37:00;;;;;;;40.55;23.42;;;;;;;;;;5013307;28;20033;-65
2021/01/28 06:39:26;;;;;;;85.78;46.75;;;;;;;;;;5013305;28;20030;-66
2021/01/28 06:42:11;;;;;;;29.67;17.40;;;;;;;;;;5013093;28;20026;-66
2021/01/28 06:44:43;;;;;;;29.77;17.75;;;;;;;;;;4996187;28;20030;-67
2021/01/28 06:47:14;;;;;;;38.92;21.27;;;;;;;;;;5013839;28;20030;-67
2021/01/28 06:49:49;;;;;;;48.22;24.65;;;;;;;;;;5013621;28;20037;-67
2021/01/28 06:52:26;;;;;;;29.00;16.25;;;;;;;;;;5013475;28;20018;-69
2021/01/28 06:54:59;;;;;;;28.30;14.82;;;;;;;;;;4995584;28;20030;-67
2021/01/28 06:57:34;;;;;;;28.95;15.77;;;;;;;;;;5013424;28;20029;-71
2021/01/28 07:00:10;;;;;;;30.98;16.17;;;;;;;;;;5012226;28;20060;-67
2021/01/28 07:02:43;;;;;;;34.33;17.80;;;;;;;;;;5013455;28;20030;-67
2021/01/28 07:05:15;;;;;;;33.67;17.63;;;;;;;;;;5013488;28;20059;-68
2021/01/28 07:07:55;;;;;;;25.47;12.87;;;;;;;;;;5005388;28;20080;-68
2021/01/28 07:10:47;;;;;;;29.10;15.35;;;;;;;;;;5000855;28;20026;-68
2021/01/28 07:13:17;;;;;;;28.90;15.68;;;;;;;;;;5001786;28;20037;-69
2021/01/28 07:15:54;;;;;;;31.77;17.38;;;;;;;;;;4994650;28;20030;-67
2021/01/28 07:18:26;;;;;;;26.65;16.10;;;;;;;;;;5011150;28;20044;-66
2021/01/28 07:21:03;;;;;;;25.20;14.70;;;;;;;;;;4990685;28;20022;-67
2021/01/28 07:23:31;;;;;;;26.02;14.00;;;;;;;;;;5014163;28;20244;-66
2021/01/28 07:26:09;;;;;;;23.58;13.65;;;;;;;;;;5014779;28;20026;-66
2021/01/28 07:28:39;;;;;;;21.95;14.20;;;;;;;;;;4989460;28;20030;-67
2021/01/28 07:31:08;;;;;;;22.10;13.02;;;;;;;;;;5014131;28;20029;-68
2021/01/28 07:33:40;;;;;;;24.77;14.15;;;;;;;;;;5012146;28;20018;-66
2021/01/28 07:36:13;;;;;;;22.38;13.60;;;;;;;;;;5004947;28;20046;-68
2021/01/28 07:38:44;;;;;;;23.55;13.05;;;;;;;;;;5005960;28;20029;-67
2021/01/28 07:41:11;;;;;;;25.07;14.63;;;;;;;;;;5015624;28;20097;-67
2021/01/28 07:43:42;;;;;;;29.27;15.52;;;;;;;;;;5016103;28;20244;-67
2021/01/28 07:46:34;;;;;;;23.48;13.85;;;;;;;;;;5006485;28;20054;-68
2021/01/28 07:49:19;;;;;;;26.08;14.55;;;;;;;;;;5016798;28;20076;-66
2021/01/28 07:51:52;;;;;;;23.98;14.02;;;;;;;;;;5015736;28;20026;-71
2021/01/28 07:54:24;;;;;;;23.17;13.18;;;;;;;;;;5008639;28;20029;-68
2021/01/28 07:56:52;;;;;;;24.88;13.57;;;;;;;;;;5014467;28;20025;-67
2021/01/28 07:59:30;;;;;;;33.47;18.77;;;;;;;;;;5011925;28;20508;-67
2021/01/28 08:02:09;;;;;;;27.83;16.15;;;;;;;;;;5012112;28;20029;-68
2021/01/28 08:04:43;;;;;;;26.13;15.65;;;;;;;;;;5015619;28;20033;-66
2021/01/28 08:07:10;;;;;;;23.55;14.05;;;;;;;;;;5008381;28;20029;-68
2021/01/28 08:09:46;;;;;;;22.25;13.73;;;;;;;;;;5013153;28;20034;-68
2021/01/28 08:12:12;;;;;;;26.25;14.65;;;;;;;;;;5014454;28;20029;-67
2021/01/28 08:14:42;;;;;;;25.65;14.13;;;;;;;;;;5014583;28;20283;-69
2021/01/28 08:17:11;;;;;;;23.40;14.45;;;;;;;;;;4997232;28;20037;-67
2021/01/28 08:19:37;;;;;;;25.45;14.63;;;;;;;;;;5014671;28;20380;-69
2021/01/28 08:22:10;;;;;;;24.83;14.55;;;;;;;;;;5010800;28;20044;-65
2021/01/28 08:24:36;;;;;;;24.42;14.70;;;;;;;;;;5000246;28;20038;-67
2021/01/28 08:27:39;;;;;;;28.88;15.18;;;;;;;;;;4995084;28;20026;-68
2021/01/28 08:30:09;;;;;;;25.55;15.73;;;;;;;;;;4915475;29;20032;-67
2021/01/28 08:32:37;;;;;;;28.67;15.88;;;;;;;;;;4916300;29;20115;-68
2021/01/28 08:35:14;;;;;;;26.50;15.10;;;;;;;;;;4915533;29;20036;-67
2021/01/28 08:37:40;;;;;;;27.05;15.65;;;;;;;;;;4916006;29;20035;-68
2021/01/28 08:40:13;;;;;;;26.58;15.40;;;;;;;;;;4926330;29;20047;-68
2021/01/28 08:42:39;;;;;;;26.30;15.95;;;;;;;;;;4917975;29;20072;-68
2021/01/28 08:45:20;;;;;;;25.85;15.75;;;;;;;;;;4929526;29;20538;-70
2021/01/28 08:47:57;;;;;;;27.25;15.38;;;;;;;;;;4934110;29;20035;-67
2021/01/28 08:50:25;;;;;;;23.65;13.95;;;;;;;;;;4918070;29;20440;-67
2021/01/28 08:52:52;;;;;;;24.08;15.07;;;;;;;;;;4934596;29;20498;-70
2021/01/28 08:55:20;;;;;;;23.95;14.30;;;;;;;;;;4934441;29;20039;-68
2021/01/28 08:57:46;;;;;;;23.60;14.85;;;;;;;;;;4934811;29;20039;-68
2021/01/28 09:00:13;;;;;;;24.17;15.27;;;;;;;;;;4934228;29;20071;-69
2021/01/28 09:02:41;;;;;;;22.10;14.38;;;;;;;;;;4918023;29;20387;-69
2021/01/28 09:05:15;;;;;;;21.55;13.45;;;;;;;;;;5010695;28;20508;-68
2021/01/28 09:07:57;;;;;;;25.15;13.90;;;;;;;;;;5012952;28;20029;-69
2021/01/28 09:10:34;;;;;;;23.67;13.50;;;;;;;;;;5013349;28;20120;-69
2021/01/28 09:13:19;;;;;;;20.10;12.50;;;;;;;;;;5012242;28;20032;-69
2021/01/28 09:15:45;;;;;;;22.90;12.73;;;;;;;;;;5011814;28;20121;-69
2021/01/28 09:18:18;;;;;;;19.90;13.43;;;;;;;;;;5012843;28;20030;-68
2021/01/28 09:20:44;;;;;;;19.23;12.27;;;;;;;;;;5012729;28;20022;-69
2021/01/28 09:23:14;;;;;;;19.23;12.23;;;;;;;;;;5012617;28;20022;-70
2021/01/28 09:25:42;;;;;;;19.05;12.52;;;;;;;;;;5013501;28;20497;-68
2021/01/28 09:28:12;;;;;;;20.00;12.65;;;;;;;;;;5013882;28;20022;-69
2021/01/28 09:30:40;;;;;;;20.08;12.85;;;;;;;;;;5013565;28;20029;-69
2021/01/28 09:33:23;;;;;;;20.40;13.07;;;;;;;;;;5012904;28;20022;-70
2021/01/28 09:36:07;;;;;;;22.88;13.07;;;;;;;;;;4993546;28;20034;-67
2021/01/28 09:38:33;;;;;;;24.98;14.57;;;;;;;;;;4993500;28;20026;-67
2021/01/28 09:41:28;;;;;;;21.63;13.88;;;;;;;;;;4997160;28;20042;-67
2021/01/28 09:43:55;;;;;;;22.88;14.35;;;;;;;;;;4940167;29;20432;-67
2021/01/28 09:46:21;;;;;;;22.10;14.90;;;;;;;;;;4942911;29;20604;-67
2021/01/28 09:48:47;;;;;;;26.83;15.10;;;;;;;;;;4942428;29;20127;-66
2021/01/28 09:51:15;;;;;;;29.50;16.60;;;;;;;;;;4940858;29;20035;-66
2021/01/28 09:53:57;;;;;;;24.58;15.48;;;;;;;;;;4942660;29;20098;-67
2021/01/28 09:56:23;;;;;;;25.80;14.02;;;;;;;;;;4939626;29;20044;-68
2021/01/28 09:58:49;;;;;;;21.17;12.90;;;;;;;;;;4936881;29;20034;-67
2021/01/28 10:01:15;;;;;;;22.45;13.05;;;;;;;;;;4940965;29;20038;-65
2021/01/28 10:03:41;;;;;;;21.23;12.45;;;;;;;;;;4940449;29;20032;-68
2021/01/28 10:06:08;;;;;;;19.20;12.68;;;;;;;;;;4940577;29;20621;-67
2021/01/28 10:08:34;;;;;;;26.65;14.60;;;;;;;;;;4942982;29;20046;-69
2021/01/28 10:11:00;;;;;;;22.52;13.35;;;;;;;;;;4941263;29;20023;-70
2021/01/28 10:13:26;;;;;;;25.50;13.02;;;;;;;;;;4940690;29;20032;-68
2021/01/28 10:15:52;;;;;;;20.63;11.88;;;;;;;;;;4942889;29;20023;-69
2021/01/28 10:18:18;;;;;;;19.08;11.65;;;;;;;;;;4940997;29;20032;-67
2021/01/28 10:20:44;;;;;;;19.55;11.60;;;;;;;;;;4984876;28;20069;-66
2021/01/28 10:23:10;;;;;;;24.20;11.77;;;;;;;;;;5001174;28;20461;-69
2021/01/28 10:25:37;;;;;;;18.25;10.60;;;;;;;;;;5005579;28;20053;-68
2021/01/28 10:28:04;;;;;;;18.98;10.90;;;;;;;;;;5001171;28;20080;-70
2021/01/28 10:30:30;;;;;;;18.65;10.52;;;;;;;;;;4999930;28;20101;-67
2021/01/28 10:32:57;;;;;;;16.63;9.98;;;;;;;;;;4999384;28;20018;-67
2021/01/28 10:35:26;;;;;;;15.57;10.30;;;;;;;;;;5003021;28;20064;-67
2021/01/28 10:37:52;;;;;;;17.83;10.35;;;;;;;;;;5004358;28;20014;-68
2021/01/28 10:40:19;;;;;;;19.05;11.18;;;;;;;;;;4996810;28;20734;-67
2021/01/28 10:42:46;;;;;;;15.95;10.43;;;;;;;;;;5004103;28;20711;-65
2021/01/28 10:45:20;;;;;;;16.67;9.63;;;;;;;;;;5005514;28;20025;-70
2021/01/28 10:47:46;;;;;;;20.05;10.40;;;;;;;;;;5004607;28;20025;-66
2021/01/28 10:50:13;;;;;;;17.83;11.70;;;;;;;;;;5003655;28;20037;-67
2021/01/28 10:52:40;;;;;;;19.77;11.30;;;;;;;;;;5001494;28;20027;-69
2021/01/28 10:55:07;;;;;;;22.10;12.20;;;;;;;;;;5005502;28;20101;-67
2021/01/28 10:57:38;;;;;;;18.17;11.70;;;;;;;;;;5007841;28;20444;-71
2021/01/28 11:00:05;;;;;;;17.52;10.75;;;;;;;;;;5007417;28;20040;-64
2021/01/28 11:02:31;;;;;;;18.17;10.25;;;;;;;;;;5004560;28;20033;-66
2021/01/28 11:04:57;;;;;;;18.65;11.07;;;;;;;;;;5012870;28;20034;-66
2021/01/28 11:07:24;;;;;;;19.63;12.07;;;;;;;;;;5011714;28;20065;-66
2021/01/28 11:09:50;;;;;;;18.67;11.75;;;;;;;;;;5011978;28;20507;-66
2021/01/28 11:12:16;;;;;;;21.05;12.20;;;;;;;;;;5004347;28;20034;-66
2021/01/28 11:14:42;;;;;;;20.48;11.38;;;;;;;;;;5012560;28;20045;-65
2021/01/28 11:17:08;;;;;;;18.98;11.10;;;;;;;;;;5010447;28;20101;-68
2021/01/28 11:19:34;;;;;;;17.85;10.35;;;;;;;;;;5009646;28;20053;-66
2021/01/28 11:22:00;;;;;;;17.52;10.82;;;;;;;;;;5009836;28;20092;-66
2021/01/28 11:24:28;;;;;;;18.00;11.27;;;;;;;;;;5008464;28;20105;-66
2021/01/28 11:26:55;;;;;;;19.33;11.52;;;;;;;;;;4997029;28;20370;-67
2021/01/28 11:29:24;;;;;;;18.15;10.52;;;;;;;;;;4982732;28;20108;-66
2021/01/28 11:31:50;;;;;;;15.52;9.35;;;;;;;;;;5011503;28;20490;-65
2021/01/28 11:34:16;;;;;;;16.00;9.75;;;;;;;;;;5011977;28;20026;-66
2021/01/28 11:36:42;;;;;;;17.38;10.02;;;;;;;;;;5011683;28;20047;-67
2021/01/28 11:39:08;;;;;;;15.63;9.93;;;;;;;;;;4997313;28;20026;-66
2021/01/28 11:41:35;;;;;;;16.38;10.13;;;;;;;;;;5011724;28;20014;-66
2021/01/28 11:44:01;;;;;;;16.60;10.57;;;;;;;;;;4994353;28;20080;-65
2021/01/28 11:46:27;;;;;;;17.17;10.25;;;;;;;;;;5007449;28;20362;-69
2021/01/28 11:48:53;;;;;;;18.75;10.68;;;;;;;;;;5003121;28;20026;-68
2021/01/28 11:51:19;;;;;;;20.55;11.10;;;;;;;;;;5004336;28;20054;-68
2021/01/28 11:53:45;;;;;;;22.48;11.07;;;;;;;;;;5005140;28;20076;-67
2021/01/28 11:56:11;;;;;;;21.25;11.25;;;;;;;;;;5001651;28;20505;-66
2021/01/28 11:58:37;;;;;;;19.20;10.45;;;;;;;;;;5004725;28;20037;-65
2021/01/28 12:01:04;;;;;;;19.30;10.45;;;;;;;;;;5006761;28;20077;-67
2021/01/28 12:03:30;;;;;;;18.05;10.95;;;;;;;;;;5006976;28;20030;-68
2021/01/28 12:05:56;;;;;;;20.65;10.98;;;;;;;;;;4999949;28;20030;-69
2021/01/28 12:08:22;;;;;;;18.40;10.55;;;;;;;;;;5003780;28;20040;-71
2021/01/28 12:10:48;;;;;;;17.83;9.75;;;;;;;;;;5004943;28;20018;-68
2021/01/28 12:13:14;;;;;;;18.40;10.27;;;;;;;;;;5003387;28;20022;-66
2021/01/28 12:15:40;;;;;;;14.18;7.90;;;;;;;;;;5003455;28;20101;-68
2021/01/28 12:18:06;;;;;;;15.23;8.15;;;;;;;;;;5004854;28;20030;-70
2021/01/28 12:20:33;;;;;;;15.30;7.25;;;;;;;;;;5012284;28;20105;-67
2021/01/28 12:22:59;;;;;;;14.43;8.70;;;;;;;;;;5014100;28;20076;-67
2021/01/28 12:25:25;;;;;;;15.43;7.82;;;;;;;;;;5014703;28;20470;-67
2021/01/28 12:27:51;;;;;;;11.02;6.80;;;;;;;;;;4995464;28;20114;-66
2021/01/28 12:30:20;;;;;;;16.52;7.78;;;;;;;;;;4993368;28;20035;-65
2021/01/28 12:32:46;;;;;;;13.43;7.15;;;;;;;;;;4994436;28;20370;-65
2021/01/28 12:35:12;;;;;;;11.48;7.10;;;;;;;;;;4994674;28;20076;-68
2021/01/28 12:37:38;;;;;;;15.20;7.10;;;;;;;;;;5002100;28;20095;-65
2021/01/28 12:40:06;;;;;;;10.02;5.55;;;;;;;;;;5013607;28;20022;-66
2021/01/28 12:42:32;;;;;;;15.20;6.50;;;;;;;;;;5011037;28;20033;-69
2021/01/28 12:44:58;;;;;;;11.15;6.97;;;;;;;;;;5013794;28;20030;-69
2021/01/28 12:47:24;;;;;;;14.63;7.47;;;;;;;;;;5014111;28;20547;-68
2021/01/28 12:49:51;;;;;;;20.38;9.57;;;;;;;;;;5013543;28;20033;-68
2021/01/28 12:52:17;;;;;;;11.52;6.35;;;;;;;;;;5013231;28;20037;-64
2021/01/28 12:54:43;;;;;;;9.77;6.38;;;;;;;;;;5014286;28;20041;-68
2021/01/28 12:57:09;;;;;;;15.45;6.00;;;;;;;;;;5013177;28;20026;-69
2021/01/28 12:59:35;;;;;;;15.48;7.85;;;;;;;;;;5014012;28;20055;-66
2021/01/28 13:02:01;;;;;;;15.82;7.70;;;;;;;;;;5012950;28;20556;-68
2021/01/28 13:04:35;;;;;;;14.20;7.38;;;;;;;;;;5013662;28;20034;-69
2021/01/28 13:07:01;;;;;;;13.23;6.70;;;;;;;;;;5014229;28;20022;-69
2021/01/28 13:09:28;;;;;;;15.95;6.97;;;;;;;;;;5014453;28;20096;-72
2021/01/28 13:11:54;;;;;;;11.05;5.80;;;;;;;;;;5012395;28;20072;-72
2021/01/28 13:14:21;;;;;;;8.18;4.90;;;;;;;;;;5000317;28;20125;-69
2021/01/28 13:16:47;;;;;;;11.15;4.78;;;;;;;;;;5002761;28;20539;-68
2021/01/28 13:19:13;;;;;;;7.88;4.47;;;;;;;;;;5001345;28;20514;-69
2021/01/28 13:21:39;;;;;;;9.73;5.03;;;;;;;;;;5002708;28;20032;-68
2021/01/28 13:24:05;;;;;;;9.50;4.43;;;;;;;;;;5003372;28;20057;-68
2021/01/28 13:26:31;;;;;;;11.73;4.78;;;;;;;;;;5001484;28;20025;-65
2021/01/28 13:28:59;;;;;;;10.57;5.03;;;;;;;;;;5002258;28;20030;-71
2021/01/28 13:31:25;;;;;;;12.38;5.75;;;;;;;;;;5012574;28;20030;-66
2021/01/28 13:33:51;;;;;;;10.48;5.30;;;;;;;;;;5012803;28;20022;-69
2021/01/28 13:36:18;;;;;;;11.88;4.90;;;;;;;;;;5013433;28;20030;-67
2021/01/28 13:38:45;;;;;;;12.45;5.43;;;;;;;;;;5013508;28;20139;-69
2021/01/28 13:41:11;;;;;;;11.88;5.20;;;;;;;;;;5012203;28;20046;-67
2021/01/28 13:43:37;;;;;;;10.82;5.15;;;;;;;;;;5013247;28;20030;-66
2021/01/28 13:46:03;;;;;;;10.38;4.63;;;;;;;;;;5013017;28;20567;-67
2021/01/28 13:48:29;;;;;;;8.35;4.60;;;;;;;;;;5013054;28;20105;-66
2021/01/28 13:50:55;;;;;;;10.68;5.15;;;;;;;;;;5012568;28;20473;-70
2021/01/28 13:53:21;;;;;;;12.18;4.35;;;;;;;;;;5013031;28;20040;-70
2021/01/28 13:55:49;;;;;;;14.63;4.32;;;;;;;;;;5012640;28;20417;-69
2021/01/28 13:58:16;;;;;;;10.68;4.97;;;;;;;;;;5013242;28;20029;-69
2021/01/28 14:00:42;;;;;;;8.48;4.18;;;;;;;;;;4995627;28;20468;-69
2021/01/28 14:03:08;;;;;;;11.32;4.38;;;;;;;;;;5012738;28;20072;-69
2021/01/28 14:05:34;;;;;;;9.63;4.03;;;;;;;;;;5012814;28;20053;-68
2021/01/28 14:08:00;;;;;;;16.80;6.60;;;;;;;;;;5013372;28;20030;-68
2021/01/28 14:10:28;;;;;;;18.42;6.90;;;;;;;;;;5012799;28;20105;-68
2021/01/28 14:12:54;;;;;;;19.65;6.30;;;;;;;;;;5012438;28;20045;-69
2021/01/28 14:15:21;;;;;;;17.13;7.15;;;;;;;;;;5001474;28;20050;-68
2021/01/28 14:17:48;;;;;;;16.30;6.30;;;;;;;;;;5010865;28;20033;-68
2021/01/28 14:20:14;;;;;;;18.73;7.70;;;;;;;;;;5013165;28;20357;-68
2021/01/28 14:22:41;;;;;;;16.25;7.20;;;;;;;;;;5012676;28;20104;-69
2021/01/28 14:25:08;;;;;;;18.35;5.90;;;;;;;;;;5008192;28;20088;-71
2021/01/28 14:27:53;;;;;;;14.60;6.65;;;;;;;;;;5011523;28;20417;-71
2021/01/28 14:30:21;;;;;;;14.23;4.90;;;;;;;;;;5000219;28;20124;-70
2021/01/28 14:32:48;;;;;;;14.68;4.43;;;;;;;;;;5010051;28;20026;-68
2021/01/28 14:35:18;;;;;;;12.88;5.13;;;;;;;;;;5005389;28;20061;-68
2021/01/28 14:37:44;;;;;;;9.13;4.43;;;;;;;;;;5006610;28;20369;-70
2021/01/28 14:40:10;;;;;;;10.68;3.95;;;;;;;;;;5006334;28;20076;-70
2021/01/28 14:42:36;;;;;;;14.52;4.63;;;;;;;;;;5002084;28;20065;-69
2021/01/28 14:45:04;;;;;;;12.38;5.68;;;;;;;;;;4997164;28;20102;-69
2021/01/28 14:47:30;;;;;;;10.55;4.75;;;;;;;;;;5014799;28;20044;-68
2021/01/28 14:49:56;;;;;;;15.45;6.13;;;;;;;;;;5016258;28;20041;-67
2021/01/28 14:52:22;;;;;;;10.65;5.57;;;;;;;;;;5016181;28;20034;-66
2021/01/28 14:54:48;;;;;;;15.10;6.10;;;;;;;;;;5016564;28;20034;-69
2021/01/28 14:57:14;;;;;;;18.40;6.50;;;;;;;;;;5016550;28;20021;-68
2021/01/28 14:59:40;;;;;;;18.02;6.95;;;;;;;;;;5016350;28;20018;-68
2021/01/28 15:02:07;;;;;;;20.00;7.57;;;;;;;;;;5015806;28;20076;-68
2021/01/28 15:04:33;;;;;;;9.43;4.07;;;;;;;;;;5016112;28;20049;-68
2021/01/28 15:06:59;;;;;;;10.90;5.45;;;;;;;;;;5016107;28;20107;-67
2021/01/28 15:09:25;;;;;;;13.98;5.43;;;;;;;;;;5015966;28;20025;-69
2021/01/28 15:11:51;;;;;;;20.83;7.65;;;;;;;;;;5015951;28;20014;-67
2021/01/28 15:14:17;;;;;;;16.17;6.60;;;;;;;;;;5014271;28;20058;-69
2021/01/28 15:16:44;;;;;;;15.75;6.28;;;;;;;;;;5015103;28;20061;-68
2021/01/28 15:19:10;;;;;;;21.52;7.70;;;;;;;;;;5013519;28;20377;-69
2021/01/28 15:21:36;;;;;;;18.75;7.13;;;;;;;;;;5014256;28;20022;-70
2021/01/28 15:24:04;;;;;;;15.43;7.22;;;;;;;;;;5013663;28;20025;-68
2021/01/28 15:26:30;;;;;;;18.65;6.82;;;;;;;;;;5012638;28;20034;-69
2021/01/28 15:28:57;;;;;;;12.30;5.50;;;;;;;;;;5014066;28;20476;-69
2021/01/28 15:31:23;;;;;;;13.32;5.93;;;;;;;;;;5014349;28;20033;-69
2021/01/28 15:33:49;;;;;;;14.63;7.30;;;;;;;;;;5013754;28;20018;-68
2021/01/28 15:36:15;;;;;;;16.17;7.95;;;;;;;;;;5014292;28;20494;-67
2021/01/28 15:38:42;;;;;;;30.40;13.10;;;;;;;;;;5013222;28;20030;-68
2021/01/28 15:41:08;;;;;;;32.83;14.80;;;;;;;;;;5014328;28;20030;-68
2021/01/28 15:43:34;;;;;;;28.98;13.10;;;;;;;;;;5011213;28;20032;-65
2021/01/28 15:46:00;;;;;;;24.25;12.30;;;;;;;;;;5011880;28;20080;-67
2021/01/28 15:48:26;;;;;;;36.00;15.48;;;;;;;;;;5005060;28;20029;-68
2021/01/28 15:50:52;;;;;;;45.05;17.50;;;;;;;;;;5004961;28;20141;-68
2021/01/28 15:53:19;;;;;;;49.38;19.58;;;;;;;;;;5003981;28;20036;-66
2021/01/28 15:55:48;;;;;;;73.95;25.83;;;;;;;;;;5005289;28;20081;-66
2021/01/28 15:58:14;;;;;;;73.15;27.98;;;;;;;;;;5005133;28;20023;-67
2021/01/28 16:00:41;;;;;;;99.93;36.38;;;;;;;;;;5003422;28;20465;-66
2021/01/28 16:03:07;;;;;;;93.93;35.67;;;;;;;;;;5004686;28;20034;-66
2021/01/28 16:05:34;;;;;;;108.07;39.40;;;;;;;;;;5004652;28;20445;-66
2021/01/28 16:08:00;;;;;;;104.22;39.20;;;;;;;;;;5003021;28;20022;-67
2021/01/28 16:10:26;;;;;;;120.90;45.60;;;;;;;;;;5005230;28;20454;-67
2021/01/28 16:12:52;;;;;;;124.38;45.33;;;;;;;;;;5004466;28;20142;-66
2021/01/28 16:15:19;;;;;;;118.55;45.03;;;;;;;;;;5003262;28;20092;-67
2021/01/28 16:17:45;;;;;;;95.28;41.80;;;;;;;;;;5002513;28;20088;-65
2021/01/28 16:20:12;;;;;;;108.90;46.28;;;;;;;;;;5003814;28;20037;-67
2021/01/28 16:22:38;;;;;;;96.10;43.45;;;;;;;;;;5003626;28;20092;-66
2021/01/28 16:25:06;;;;;;;80.40;39.50;;;;;;;;;;5005259;28;20373;-67
2021/01/28 16:27:32;;;;;;;100.03;46.25;;;;;;;;;;5004054;28;20022;-67
2021/01/28 16:29:58;;;;;;;91.20;40.33;;;;;;;;;;5003596;28;20030;-67
2021/01/28 16:32:24;;;;;;;95.57;43.70;;;;;;;;;;5013343;28;20084;-67
2021/01/28 16:34:50;;;;;;;81.07;36.90;;;;;;;;;;5014562;28;20080;-68
2021/01/28 16:37:19;;;;;;;85.53;35.65;;;;;;;;;;5014137;28;20022;-67
2021/01/28 16:39:45;;;;;;;79.55;35.58;;;;;;;;;;5014801;28;20097;-67
2021/01/28 16:42:11;;;;;;;71.13;33.13;;;;;;;;;;5015012;28;20033;-68
2021/01/28 16:44:37;;;;;;;72.85;32.78;;;;;;;;;;5014032;28;20373;-70
2021/01/28 16:47:05;;;;;;;70.38;31.67;;;;;;;;;;5014626;28;20109;-68
2021/01/28 16:49:31;;;;;;;70.72;31.25;;;;;;;;;;5014530;28;20018;-69
2021/01/28 16:51:57;;;;;;;87.70;35.72;;;;;;;;;;5014165;28;20037;-69
2021/01/28 16:54:23;;;;;;;79.10;33.30;;;;;;;;;;5014609;28;20022;-69
2021/01/28 16:56:49;;;;;;;83.38;32.38;;;;;;;;;;5014533;28;20030;-67
2021/01/28 16:59:15;;;;;;;65.38;29.67;;;;;;;;;;5014042;28;20106;-68
2021/01/28 17:01:41;;;;;;;67.10;29.08;;;;;;;;;;5010091;28;20053;-68
2021/01/28 17:04:08;;;;;;;73.22;30.30;;;;;;;;;;5013806;28;20402;-68
2021/01/28 17:06:34;;;;;;;73.30;30.77;;;;;;;;;;5013966;28;20022;-69
2021/01/28 17:09:00;;;;;;;74.00;30.67;;;;;;;;;;5013538;28;20029;-68
2021/01/28 17:11:26;;;;;;;69.93;30.73;;;;;;;;;;4995564;28;20021;-69
2021/01/28 17:13:52;;;;;;;71.88;30.50;;;;;;;;;;5013667;28;20061;-69
2021/01/28 17:16:18;;;;;;;75.75;32.67;;;;;;;;;;5012943;28;20034;-68
2021/01/28 17:18:45;;;;;;;87.13;38.65;;;;;;;;;;5013482;28;20493;-68
2021/01/28 17:21:11;;;;;;;86.30;37.63;;;;;;;;;;5012901;28;20465;-69
2021/01/28 17:23:37;;;;;;;101.32;41.60;;;;;;;;;;5013090;28;20029;-69
2021/01/28 17:26:03;;;;;;;95.70;42.88;;;;;;;;;;5012611;28;20026;-68
2021/01/28 17:28:29;;;;;;;98.32;41.55;;;;;;;;;;5014012;28;20038;-67
2021/01/28 17:30:55;;;;;;;104.80;44.58;;;;;;;;;;5013069;28;20029;-68
2021/01/28 17:33:21;;;;;;;105.93;47.03;;;;;;;;;;5012171;28;20517;-67
2021/01/28 17:35:48;;;;;;;112.63;48.33;;;;;;;;;;4993920;28;20126;-67
2021/01/28 17:38:15;;;;;;;107.78;44.83;;;;;;;;;;4993446;28;20026;-69
2021/01/28 17:40:41;;;;;;;118.50;45.35;;;;;;;;;;4993544;28;20448;-67
2021/01/28 17:43:07;;;;;;;99.00;39.35;;;;;;;;;;4993869;28;20050;-68
2021/01/28 17:45:33;;;;;;;82.60;34.50;;;;;;;;;;5009498;28;20033;-69
2021/01/28 17:48:00;;;;;;;111.18;46.63;;;;;;;;;;5012576;28;20026;-67
2021/01/28 17:50:30;;;;;;;182.38;73.45;;;;;;;;;;5013096;28;20116;-66
2021/01/28 17:52:56;;;;;;;185.38;77.43;;;;;;;;;;5009467;28;20100;-68
2021/01/28 17:55:22;;;;;;;137.73;56.40;;;;;;;;;;5012665;28;20477;-69
2021/01/28 17:57:48;;;;;;;104.30;42.42;;;;;;;;;;5013299;28;20022;-66
2021/01/28 18:00:17;;;;;;;106.72;44.13;;;;;;;;;;5012819;28;20040;-65
2021/01/28 18:02:43;;;;;;;100.03;40.55;;;;;;;;;;5011674;28;20030;-67
2021/01/28 18:05:10;;;;;;;81.63;32.28;;;;;;;;;;5013391;28;20469;-68
2021/01/28 18:07:36;;;;;;;86.60;34.95;;;;;;;;;;5012329;28;20815;-66
2021/01/28 18:10:03;;;;;;;66.03;27.45;;;;;;;;;;5012958;28;20036;-68
2021/01/28 18:12:29;;;;;;;40.80;20.92;;;;;;;;;;5012416;28;20022;-66
2021/01/28 18:14:55;;;;;;;42.85;20.60;;;;;;;;;;5010840;28;20046;-68
2021/01/28 18:17:21;;;;;;;52.50;23.58;;;;;;;;;;5012234;28;20416;-67
2021/01/28 18:22:24;;;;;;;60.80;27.23;;;;;;;;;;4789947;22;20062;-73
2021/01/28 18:24:50;;;;;;;58.97;25.35;;;;;;;;;;4993097;28;20106;-73
2021/01/28 18:27:16;;;;;;;59.95;25.50;;;;;;;;;;4993680;28;20026;-74
2021/01/28 18:29:42;;;;;;;65.75;30.27;;;;;;;;;;4992553;28;20050;-74
2021/01/28 18:32:09;;;;;;;102.78;49.28;;;;;;;;;;4993350;28;20025;-72
2021/01/28 18:34:35;;;;;;;95.45;44.75;;;;;;;;;;5008006;28;20417;-72
2021/01/28 18:37:01;;;;;;;64.00;29.70;;;;;;;;;;5007484;28;20022;-71
2021/01/28 18:39:27;;;;;;;63.63;29.83;;;;;;;;;;4993158;28;20109;-72
2021/01/28 18:41:54;;;;;;;71.30;30.30;;;;;;;;;;4992799;28;20031;-72
2021/01/28 18:44:21;;;;;;;70.18;31.98;;;;;;;;;;5005025;28;20381;-73
2021/01/28 18:46:47;;;;;;;82.47;41.85;;;;;;;;;;5007741;28;20049;-72
2021/01/28 18:49:13;;;;;;;85.90;45.65;;;;;;;;;;4992673;28;20031;-70
2021/01/28 18:51:40;;;;;;;68.70;31.08;;;;;;;;;;5007581;28;20046;-72
2021/01/28 18:54:07;;;;;;;59.10;25.05;;;;;;;;;;4993053;28;20050;-71
2021/01/28 18:56:33;;;;;;;53.53;21.52;;;;;;;;;;4992934;28;20034;-70
2021/01/28 18:58:59;;;;;;;50.67;23.98;;;;;;;;;;4992787;28;20091;-69
2021/01/28 19:01:25;;;;;;;58.63;25.65;;;;;;;;;;4992551;28;20108;-73
2021/01/28 19:03:51;;;;;;;50.17;23.30;;;;;;;;;;4992252;28;20462;-70
2021/01/28 19:06:17;;;;;;;51.78;23.15;;;;;;;;;;4992721;28;20034;-71
2021/01/28 19:08:43;;;;;;;51.92;23.73;;;;;;;;;;4992962;28;20481;-69
2021/01/28 19:11:09;;;;;;;52.45;21.48;;;;;;;;;;4992641;28;20450;-64
2021/01/28 19:13:36;;;;;;;80.70;29.45;;;;;;;;;;4992110;28;20026;-66
2021/01/28 19:16:03;;;;;;;91.47;33.17;;;;;;;;;;4996392;28;20030;-66
2021/01/28 19:18:32;;;;;;;87.38;35.55;;;;;;;;;;4995794;28;20038;-64
2021/01/28 19:20:58;;;;;;;91.30;39.17;;;;;;;;;;4995554;28;20038;-65
2021/01/28 19:23:25;;;;;;;81.30;34.08;;;;;;;;;;4997053;28;20026;-65
2021/01/28 19:25:51;;;;;;;73.22;29.98;;;;;;;;;;4995474;28;20038;-65
2021/01/28 19:28:18;;;;;;;63.42;26.60;;;;;;;;;;4995597;28;20097;-63
2021/01/28 19:30:45;;;;;;;53.92;26.25;;;;;;;;;;4995829;28;20038;-63
2021/01/28 19:33:11;;;;;;;54.88;25.25;;;;;;;;;;4995510;28;20049;-66
2021/01/28 19:35:40;;;;;;;59.65;24.83;;;;;;;;;;4995664;28;20034;-65
2021/01/28 19:38:06;;;;;;;57.28;25.70;;;;;;;;;;4996246;28;20030;-64
2021/01/28 19:40:33;;;;;;;57.55;25.80;;;;;;;;;;4996021;28;20081;-63
2021/01/28 19:42:59;;;;;;;60.17;25.60;;;;;;;;;;4995378;28;20080;-64
2021/01/28 19:45:27;;;;;;;60.08;25.45;;;;;;;;;;4995713;28;20109;-62
2021/01/28 19:47:53;;;;;;;56.95;26.17;;;;;;;;;;4996336;28;20077;-63
2021/01/28 19:50:21;;;;;;;55.30;26.13;;;;;;;;;;4995687;28;20042;-64
2021/01/28 19:52:47;;;;;;;55.80;26.15;;;;;;;;;;4995340;28;20031;-63
2021/01/28 19:55:14;;;;;;;59.17;27.45;;;;;;;;;;4995726;28;20034;-63
2021/01/28 19:57:40;;;;;;;59.60;28.17;;;;;;;;;;4995851;28;20417;-65
2021/01/28 20:00:07;;;;;;;57.95;26.92;;;;;;;;;;4995358;28;20026;-62
2021/01/28 20:02:33;;;;;;;60.20;27.42;;;;;;;;;;4994390;28;20037;-63
2021/01/28 20:05:00;;;;;;;57.15;28.20;;;;;;;;;;4977950;28;20429;-64
2021/01/28 20:07:26;;;;;;;69.47;28.95;;;;;;;;;;4995513;28;20093;-63
2021/01/28 20:09:52;;;;;;;60.95;27.33;;;;;;;;;;4995895;28;20041;-64
2021/01/28 20:12:19;;;;;;;65.10;25.77;;;;;;;;;;4995546;28;20027;-63
2021/01/28 20:14:45;;;;;;;57.33;24.88;;;;;;;;;;4995402;28;20027;-63
2021/01/28 20:17:11;;;;;;;58.50;25.55;;;;;;;;;;4994577;28;20026;-63
2021/01/28 20:19:37;;;;;;;66.70;28.90;;;;;;;;;;4994662;28;20094;-64
2021/01/28 20:22:03;;;;;;;68.80;32.03;;;;;;;;;;4994361;28;20061;-64
2021/01/28 20:24:30;;;;;;;86.97;41.22;;;;;;;;;;4992896;28;20037;-65
2021/01/28 20:26:56;;;;;;;83.22;38.55;;;;;;;;;;4994297;28;20030;-63
2021/01/28 20:29:25;;;;;;;64.38;32.85;;;;;;;;;;4995057;28;20035;-65
2021/01/28 20:31:51;;;;;;;60.38;29.02;;;;;;;;;;4995374;28;20025;-65
2021/01/28 20:34:18;;;;;;;51.35;23.80;;;;;;;;;;4995116;28;20030;-65
2021/01/28 20:36:44;;;;;;;48.88;23.98;;;;;;;;;;4995224;28;20408;-67
2021/01/28 20:39:10;;;;;;;44.88;20.85;;;;;;;;;;4994448;28;20112;-67
2021/01/28 20:41:36;;;;;;;51.13;21.45;;;;;;;;;;4994816;28;20037;-67
2021/01/28 20:44:02;;;;;;;54.78;21.20;;;;;;;;;;4994552;28;20030;-67